Time;durP1;ratioP1;P1;durP2;ratioP2;P2;SDS_P1;SDS_P2;PMS_P1;PMS_P2;Temp;Humidity;BMP_temperature;BMP_pressure;BME280_temperature;BME280_humidity;BME280_pressure;Samples;Min_cycle;Max_cycle;Signal;HPM_P1;HPM_P2
2021/09/29 00:01:45;;;;;;;12.00;10.73;;;;;;;;;;4995310;28;20025;-74
2021/09/29 00:04:10;;;;;;;12.07;10.77;;;;;;;;;;5012578;28;20025;-74
2021/09/29 00:06:35;;;;;;;12.30;10.93;;;;;;;;;;5011335;28;20026;-74
2021/09/29 00:09:00;;;;;;;12.50;11.20;;;;;;;;;;4995684;28;20484;-74
2021/09/29 00:11:25;;;;;;;12.30;11.00;;;;;;;;;;4985336;28;20109;-74
2021/09/29 00:13:51;;;;;;;11.82;10.60;;;;;;;;;;4997238;28;20096;-74
2021/09/29 00:16:16;;;;;;;16.35;11.18;;;;;;;;;;4994812;28;20021;-74
2021/09/29 00:18:41;;;;;;;11.10;10.00;;;;;;;;;;4994807;28;20040;-74
2021/09/29 00:21:07;;;;;;;11.82;10.73;;;;;;;;;;5011874;28;20030;-74
2021/09/29 00:23:32;;;;;;;13.85;10.90;;;;;;;;;;5010661;28;20201;-74
2021/09/29 00:25:57;;;;;;;11.50;10.30;;;;;;;;;;5017739;28;20392;-74
2021/09/29 00:28:23;;;;;;;12.82;11.02;;;;;;;;;;5011916;28;20033;-73
2021/09/29 00:30:52;;;;;;;12.17;9.80;;;;;;;;;;5012563;28;20038;-74
2021/09/29 00:33:18;;;;;;;12.70;10.93;;;;;;;;;;4975389;28;20636;-74
2021/09/29 00:35:44;;;;;;;12.38;10.40;;;;;;;;;;4985239;28;20025;-75
2021/09/29 00:38:09;;;;;;;11.20;10.02;;;;;;;;;;5012129;28;20072;-74
2021/09/29 00:40:34;;;;;;;12.23;9.75;;;;;;;;;;5012125;28;20463;-74
2021/09/29 00:42:59;;;;;;;10.68;9.68;;;;;;;;;;5012134;28;20038;-75
2021/09/29 00:45:24;;;;;;;12.75;9.98;;;;;;;;;;4994612;28;20022;-72
2021/09/29 00:47:49;;;;;;;12.90;10.93;;;;;;;;;;4990581;28;20391;-74
2021/09/29 00:50:15;;;;;;;12.55;10.80;;;;;;;;;;5010204;28;20029;-74
2021/09/29 00:52:40;;;;;;;11.77;10.10;;;;;;;;;;4993712;28;20025;-75
2021/09/29 00:55:08;;;;;;;11.27;10.02;;;;;;;;;;5002080;28;20053;-75
2021/09/29 00:57:34;;;;;;;10.73;9.73;;;;;;;;;;5011618;28;20049;-74
2021/09/29 00:59:59;;;;;;;12.23;10.95;;;;;;;;;;4994684;28;20025;-75
2021/09/29 01:02:24;;;;;;;12.77;10.38;;;;;;;;;;4977769;28;20052;-75
2021/09/29 01:04:50;;;;;;;10.93;9.75;;;;;;;;;;5008103;28;20009;-75
2021/09/29 01:07:15;;;;;;;11.75;10.50;;;;;;;;;;5010922;28;20026;-75
2021/09/29 01:09:59;;;;;;;12.80;10.35;;;;;;;;;;4994017;28;20472;-76
2021/09/29 01:12:30;;;;;;;10.63;9.55;;;;;;;;;;5011262;28;20033;-74
2021/09/29 01:14:58;;;;;;;13.38;10.15;;;;;;;;;;4993733;28;20108;-74
2021/09/29 01:17:23;;;;;;;11.65;10.45;;;;;;;;;;5011474;28;20300;-74
2021/09/29 01:19:57;;;;;;;10.98;9.70;;;;;;;;;;5012190;28;20079;-74
2021/09/29 01:22:31;;;;;;;11.18;9.98;;;;;;;;;;4991489;28;20384;-74
2021/09/29 01:25:01;;;;;;;12.02;10.18;;;;;;;;;;4991454;28;20026;-73
2021/09/29 01:27:26;;;;;;;12.43;11.13;;;;;;;;;;5011316;28;20081;-73
2021/09/29 01:29:52;;;;;;;11.90;9.85;;;;;;;;;;4994442;28;20594;-74
2021/09/29 01:32:19;;;;;;;13.23;9.77;;;;;;;;;;5012057;28;20041;-74
2021/09/29 01:34:44;;;;;;;11.68;10.48;;;;;;;;;;5011185;28;20026;-75
2021/09/29 01:37:10;;;;;;;12.88;10.30;;;;;;;;;;4977885;28;20507;-75
2021/09/29 01:39:37;;;;;;;12.98;9.93;;;;;;;;;;5001168;28;20458;-74
2021/09/29 01:42:02;;;;;;;11.55;10.07;;;;;;;;;;4992320;28;20309;-74
2021/09/29 01:44:27;;;;;;;11.88;10.00;;;;;;;;;;4967897;28;20384;-73
2021/09/29 01:46:52;;;;;;;14.10;11.45;;;;;;;;;;4993874;28;20029;-74
2021/09/29 01:49:20;;;;;;;19.40;14.25;;;;;;;;;;5012010;28;20041;-74
2021/09/29 01:51:47;;;;;;;16.80;13.80;;;;;;;;;;5010793;28;20108;-74
2021/09/29 01:54:13;;;;;;;16.65;13.25;;;;;;;;;;4991603;28;20109;-74
2021/09/29 01:56:39;;;;;;;16.50;13.30;;;;;;;;;;5009276;28;20136;-74
2021/09/29 01:59:05;;;;;;;16.80;13.95;;;;;;;;;;5011220;28;20520;-74
2021/09/29 02:01:37;;;;;;;16.95;14.23;;;;;;;;;;5011770;28;20025;-74
2021/09/29 02:04:03;;;;;;;18.10;14.02;;;;;;;;;;5010768;28;20022;-74
2021/09/29 02:06:28;;;;;;;19.35;15.45;;;;;;;;;;4993496;28;20029;-74
2021/09/29 02:08:53;;;;;;;20.15;14.43;;;;;;;;;;5011052;28;20022;-74
2021/09/29 02:11:19;;;;;;;20.50;14.67;;;;;;;;;;4993897;28;20072;-74
2021/09/29 02:13:44;;;;;;;17.13;13.05;;;;;;;;;;4992733;28;20287;-74
2021/09/29 02:16:09;;;;;;;15.00;11.90;;;;;;;;;;5010951;28;20047;-74
2021/09/29 02:18:34;;;;;;;17.63;12.90;;;;;;;;;;5011004;28;20474;-74
2021/09/29 02:20:59;;;;;;;17.20;13.38;;;;;;;;;;4993448;28;20034;-74
2021/09/29 02:23:25;;;;;;;18.63;14.25;;;;;;;;;;5009510;28;20025;-74
2021/09/29 02:25:50;;;;;;;16.35;12.93;;;;;;;;;;4993161;28;20419;-74
2021/09/29 02:28:15;;;;;;;16.27;12.80;;;;;;;;;;4993137;28;20084;-74
2021/09/29 02:30:40;;;;;;;15.05;12.55;;;;;;;;;;4990840;28;20029;-74
2021/09/29 02:33:05;;;;;;;14.23;11.18;;;;;;;;;;4997045;28;20168;-74
2021/09/29 02:35:31;;;;;;;14.95;11.40;;;;;;;;;;4997284;28;20117;-73
2021/09/29 02:37:56;;;;;;;17.88;12.45;;;;;;;;;;5014155;28;20026;-73
2021/09/29 02:40:22;;;;;;;15.15;11.57;;;;;;;;;;5014576;28;20040;-74
2021/09/29 02:42:48;;;;;;;13.85;11.10;;;;;;;;;;4997062;28;20108;-74
2021/09/29 02:45:13;;;;;;;13.38;10.50;;;;;;;;;;4996844;28;20121;-74
2021/09/29 02:47:38;;;;;;;13.68;10.50;;;;;;;;;;5013086;28;20554;-74
2021/09/29 02:50:04;;;;;;;14.07;10.95;;;;;;;;;;4980263;28;20032;-74
2021/09/29 02:52:29;;;;;;;16.13;11.82;;;;;;;;;;5013568;28;20384;-74
2021/09/29 02:54:55;;;;;;;16.00;12.35;;;;;;;;;;4987974;28;20085;-74
2021/09/29 02:57:20;;;;;;;17.10;11.85;;;;;;;;;;4987469;28;20054;-74
2021/09/29 02:59:45;;;;;;;18.58;12.40;;;;;;;;;;4994014;28;20575;-74
2021/09/29 03:02:10;;;;;;;15.30;11.32;;;;;;;;;;4977082;28;20037;-74
2021/09/29 03:04:37;;;;;;;14.90;12.23;;;;;;;;;;4989862;28;20046;-74
2021/09/29 03:07:02;;;;;;;15.18;12.25;;;;;;;;;;4992335;28;20759;-74
2021/09/29 03:09:27;;;;;;;15.77;12.73;;;;;;;;;;4992902;28;20143;-74
2021/09/29 03:11:53;;;;;;;16.10;12.37;;;;;;;;;;4976802;28;20125;-74
2021/09/29 03:14:18;;;;;;;15.77;12.45;;;;;;;;;;4992706;28;20336;-75
2021/09/29 03:16:43;;;;;;;17.73;13.13;;;;;;;;;;4976765;28;20589;-74
2021/09/29 03:19:09;;;;;;;16.42;12.20;;;;;;;;;;4993754;28;20113;-74
2021/09/29 03:21:35;;;;;;;15.43;12.05;;;;;;;;;;4991494;28;20080;-74
2021/09/29 03:24:00;;;;;;;17.40;12.38;;;;;;;;;;4987447;28;20113;-75
2021/09/29 03:26:25;;;;;;;13.93;12.32;;;;;;;;;;4974955;28;20015;-74
2021/09/29 03:28:50;;;;;;;15.90;13.00;;;;;;;;;;4991842;28;20023;-74
2021/09/29 03:31:15;;;;;;;15.85;13.45;;;;;;;;;;4991916;28;20116;-74
2021/09/29 03:33:41;;;;;;;17.85;13.20;;;;;;;;;;4993739;28;20030;-75
2021/09/29 03:36:07;;;;;;;16.10;12.77;;;;;;;;;;4992721;28;20029;-74
2021/09/29 03:38:32;;;;;;;15.27;12.45;;;;;;;;;;4990207;28;20546;-74
2021/09/29 03:40:57;;;;;;;19.88;14.02;;;;;;;;;;4974695;28;20165;-74
2021/09/29 03:43:22;;;;;;;16.65;13.73;;;;;;;;;;4991917;28;20125;-75
2021/09/29 03:45:48;;;;;;;17.90;13.25;;;;;;;;;;4993752;28;20053;-75
2021/09/29 03:48:13;;;;;;;19.38;14.25;;;;;;;;;;4993717;28;20033;-75
2021/09/29 03:50:38;;;;;;;20.10;15.55;;;;;;;;;;4993335;28;20064;-75
2021/09/29 03:53:03;;;;;;;21.95;16.55;;;;;;;;;;4992811;28;20404;-75
2021/09/29 03:55:29;;;;;;;22.00;16.00;;;;;;;;;;4994185;28;20061;-76
2021/09/29 03:57:54;;;;;;;21.23;15.05;;;;;;;;;;4991689;28;20080;-75
2021/09/29 04:00:20;;;;;;;20.35;14.60;;;;;;;;;;5013100;28;20045;-76
2021/09/29 04:02:46;;;;;;;23.85;15.40;;;;;;;;;;5012853;28;20151;-75
2021/09/29 04:05:11;;;;;;;21.77;15.38;;;;;;;;;;5013154;28;20210;-75
2021/09/29 04:07:37;;;;;;;20.50;14.98;;;;;;;;;;5012375;28;20034;-76
2021/09/29 04:10:03;;;;;;;18.73;14.48;;;;;;;;;;4994934;28;20035;-75
2021/09/29 04:12:28;;;;;;;21.48;15.48;;;;;;;;;;4990320;28;20058;-76
2021/09/29 04:14:54;;;;;;;23.10;16.17;;;;;;;;;;5012650;28;20057;-75
2021/09/29 04:17:19;;;;;;;18.88;14.73;;;;;;;;;;4994984;28;20135;-75
2021/09/29 04:19:45;;;;;;;21.52;15.45;;;;;;;;;;5012600;28;20028;-75
2021/09/29 04:22:11;;;;;;;20.45;16.15;;;;;;;;;;5011953;28;20010;-75
2021/09/29 04:24:37;;;;;;;22.45;15.60;;;;;;;;;;4992673;28;20048;-75
2021/09/29 04:27:02;;;;;;;23.45;15.95;;;;;;;;;;4995239;28;20077;-75
2021/09/29 04:29:27;;;;;;;22.30;16.08;;;;;;;;;;4993737;28;20443;-76
2021/09/29 04:31:52;;;;;;;22.77;16.88;;;;;;;;;;4994883;28;20392;-75
2021/09/29 04:34:18;;;;;;;23.27;16.98;;;;;;;;;;4994447;28;20037;-75
2021/09/29 04:36:43;;;;;;;23.92;16.70;;;;;;;;;;4993568;28;20033;-75
2021/09/29 04:39:08;;;;;;;23.08;16.73;;;;;;;;;;4994470;28;20072;-76
2021/09/29 04:41:33;;;;;;;25.98;17.42;;;;;;;;;;4994615;28;20029;-74
2021/09/29 04:43:58;;;;;;;24.63;17.58;;;;;;;;;;5011627;28;20026;-75
2021/09/29 04:46:23;;;;;;;22.37;16.40;;;;;;;;;;4994631;28;20114;-75
2021/09/29 04:48:49;;;;;;;24.77;17.17;;;;;;;;;;5006787;28;20283;-75
2021/09/29 04:51:14;;;;;;;24.42;17.35;;;;;;;;;;4977557;28;20479;-74
2021/09/29 04:53:40;;;;;;;25.17;17.17;;;;;;;;;;5009191;28;21696;-73
2021/09/29 04:56:05;;;;;;;24.48;17.38;;;;;;;;;;4990202;28;20086;-74
2021/09/29 04:58:30;;;;;;;23.88;17.05;;;;;;;;;;4974642;28;20038;-75
2021/09/29 05:00:55;;;;;;;23.50;16.42;;;;;;;;;;4990717;28;20480;-75
2021/09/29 05:03:22;;;;;;;23.60;16.23;;;;;;;;;;4991967;28;20503;-75
2021/09/29 05:05:47;;;;;;;25.38;17.70;;;;;;;;;;4980338;28;20488;-71
2021/09/29 05:08:24;;;;;;;26.65;18.02;;;;;;;;;;4991775;28;20122;-72
2021/09/29 05:11:00;;;;;;;25.52;17.92;;;;;;;;;;4990280;28;20026;-72
2021/09/29 05:13:26;;;;;;;23.25;17.38;;;;;;;;;;4992290;28;20026;-71
2021/09/29 05:15:52;;;;;;;24.13;16.88;;;;;;;;;;4991954;28;20057;-73
2021/09/29 05:18:18;;;;;;;24.58;18.02;;;;;;;;;;4990751;28;20031;-72
2021/09/29 05:20:43;;;;;;;25.88;17.33;;;;;;;;;;4991315;28;20030;-72
2021/09/29 05:23:08;;;;;;;26.50;18.73;;;;;;;;;;4973760;28;20117;-72
2021/09/29 05:25:34;;;;;;;25.42;17.45;;;;;;;;;;4968407;28;20027;-71
2021/09/29 05:28:00;;;;;;;26.15;18.27;;;;;;;;;;4981338;28;20015;-71
2021/09/29 05:30:25;;;;;;;31.58;19.63;;;;;;;;;;4986383;28;20173;-70
2021/09/29 05:32:50;;;;;;;26.73;17.98;;;;;;;;;;4990159;28;20030;-71
2021/09/29 05:35:16;;;;;;;27.60;18.05;;;;;;;;;;4991774;28;20042;-71
2021/09/29 05:37:41;;;;;;;27.15;17.80;;;;;;;;;;4991000;28;20033;-72
2021/09/29 05:40:06;;;;;;;24.50;17.70;;;;;;;;;;4989966;28;20026;-71
2021/09/29 05:42:31;;;;;;;24.17;16.75;;;;;;;;;;4990034;28;20608;-71
2021/09/29 05:44:57;;;;;;;25.42;17.90;;;;;;;;;;4990069;28;20049;-71
2021/09/29 05:47:22;;;;;;;25.53;17.97;;;;;;;;;;4990891;28;20030;-70
2021/09/29 05:49:47;;;;;;;24.17;17.50;;;;;;;;;;4989103;28;20336;-70
2021/09/29 05:52:12;;;;;;;24.30;17.38;;;;;;;;;;4990905;28;20717;-71
2021/09/29 05:54:38;;;;;;;24.30;17.00;;;;;;;;;;4987794;28;20080;-70
2021/09/29 05:57:04;;;;;;;22.80;16.25;;;;;;;;;;5006723;28;20144;-71
2021/09/29 05:59:29;;;;;;;24.83;16.88;;;;;;;;;;5010250;28;20042;-70
2021/09/29 06:01:54;;;;;;;25.13;18.08;;;;;;;;;;4993133;28;20034;-71
2021/09/29 06:04:19;;;;;;;24.33;16.80;;;;;;;;;;5012116;28;20101;-70
2021/09/29 06:06:44;;;;;;;23.88;17.70;;;;;;;;;;4997263;28;20023;-70
2021/09/29 06:09:10;;;;;;;25.58;18.05;;;;;;;;;;5014686;28;20396;-71
2021/09/29 06:11:35;;;;;;;25.50;17.42;;;;;;;;;;5014487;28;20040;-71
2021/09/29 06:14:03;;;;;;;21.50;15.93;;;;;;;;;;5014158;28;20034;-69
2021/09/29 06:16:29;;;;;;;25.08;17.40;;;;;;;;;;4997837;28;20036;-69
2021/09/29 06:18:54;;;;;;;20.38;15.90;;;;;;;;;;4997089;28;20057;-69
2021/09/29 06:21:20;;;;;;;20.42;16.08;;;;;;;;;;5012759;28;20078;-69
2021/09/29 06:23:46;;;;;;;21.70;16.45;;;;;;;;;;4977676;28;20120;-70
2021/09/29 06:26:11;;;;;;;23.63;16.70;;;;;;;;;;5014493;28;20018;-71
2021/09/29 06:28:39;;;;;;;21.42;16.40;;;;;;;;;;5014331;28;20357;-70
2021/09/29 06:31:05;;;;;;;21.27;16.52;;;;;;;;;;4996680;28;20049;-72
2021/09/29 06:33:31;;;;;;;25.75;17.63;;;;;;;;;;5014528;28;20018;-70
2021/09/29 06:35:56;;;;;;;23.52;17.83;;;;;;;;;;4997349;28;20029;-70
2021/09/29 06:38:21;;;;;;;24.85;18.50;;;;;;;;;;5013403;28;20022;-70
2021/09/29 06:40:46;;;;;;;22.92;17.73;;;;;;;;;;5013904;28;20070;-71
2021/09/29 06:43:12;;;;;;;23.90;17.98;;;;;;;;;;5014054;28;20030;-70
2021/09/29 06:45:37;;;;;;;25.83;18.10;;;;;;;;;;5011694;28;20022;-70
2021/09/29 06:48:02;;;;;;;24.40;17.60;;;;;;;;;;5006280;28;20088;-70
2021/09/29 06:50:27;;;;;;;25.50;18.30;;;;;;;;;;5014285;28;20036;-70
2021/09/29 06:52:53;;;;;;;21.80;17.08;;;;;;;;;;4995788;28;20399;-70
2021/09/29 06:55:18;;;;;;;22.40;17.20;;;;;;;;;;4991969;28;20034;-70
2021/09/29 06:57:44;;;;;;;26.63;17.60;;;;;;;;;;4998601;28;20037;-70
2021/09/29 07:00:09;;;;;;;24.30;18.70;;;;;;;;;;4996214;28;20038;-70
2021/09/29 07:02:40;;;;;;;24.77;17.27;;;;;;;;;;5011982;28;20025;-70
2021/09/29 07:05:05;;;;;;;23.88;17.98;;;;;;;;;;5032441;28;20024;-70
2021/09/29 07:07:32;;;;;;;24.08;16.90;;;;;;;;;;5032020;28;20022;-70
2021/09/29 07:09:57;;;;;;;20.25;16.42;;;;;;;;;;5014281;28;20030;-70
2021/09/29 07:12:22;;;;;;;26.63;18.17;;;;;;;;;;5008490;28;20033;-69
2021/09/29 07:14:47;;;;;;;24.10;17.65;;;;;;;;;;5012716;28;20866;-72
2021/09/29 07:17:12;;;;;;;28.55;19.00;;;;;;;;;;5013376;28;20033;-72
2021/09/29 07:19:39;;;;;;;25.58;18.30;;;;;;;;;;5012839;28;20034;-71
2021/09/29 07:22:05;;;;;;;23.65;17.35;;;;;;;;;;5011789;28;20034;-72
2021/09/29 07:24:30;;;;;;;27.15;17.70;;;;;;;;;;5010819;28;20021;-72
2021/09/29 07:26:55;;;;;;;24.48;17.05;;;;;;;;;;4995450;28;20032;-71
2021/09/29 07:29:20;;;;;;;24.65;18.02;;;;;;;;;;5012239;28;20032;-72
2021/09/29 07:31:46;;;;;;;24.15;17.08;;;;;;;;;;4994626;28;20025;-73
2021/09/29 07:34:12;;;;;;;25.55;18.17;;;;;;;;;;4995389;28;20034;-71
2021/09/29 07:36:38;;;;;;;23.25;17.42;;;;;;;;;;5012701;28;20030;-71
2021/09/29 07:39:03;;;;;;;23.00;17.00;;;;;;;;;;4993980;28;20454;-72
2021/09/29 07:41:29;;;;;;;23.80;17.05;;;;;;;;;;5012526;28;20101;-72
2021/09/29 07:43:54;;;;;;;23.40;16.13;;;;;;;;;;5013083;28;20527;-70
2021/09/29 07:46:19;;;;;;;27.98;18.13;;;;;;;;;;5012798;28;20121;-70
2021/09/29 07:48:45;;;;;;;21.95;17.65;;;;;;;;;;5012262;28;20400;-70
2021/09/29 07:51:10;;;;;;;25.45;16.52;;;;;;;;;;5012112;28;20034;-70
2021/09/29 07:53:35;;;;;;;23.98;17.50;;;;;;;;;;5011287;28;20018;-69
2021/09/29 07:56:01;;;;;;;26.42;18.75;;;;;;;;;;5011675;28;20046;-68
2021/09/29 07:58:26;;;;;;;27.42;18.42;;;;;;;;;;5011725;28;20037;-70
2021/09/29 08:00:51;;;;;;;27.88;19.17;;;;;;;;;;5012195;28;20030;-69
2021/09/29 08:03:16;;;;;;;27.15;18.58;;;;;;;;;;5011399;28;20026;-70
2021/09/29 08:05:42;;;;;;;25.70;18.13;;;;;;;;;;5012517;28;20037;-68
2021/09/29 08:08:07;;;;;;;20.85;16.90;;;;;;;;;;4991806;28;20061;-69
2021/09/29 08:10:32;;;;;;;23.17;17.85;;;;;;;;;;4994418;28;20030;-70
2021/09/29 08:12:57;;;;;;;23.90;18.42;;;;;;;;;;5000706;28;20064;-70
2021/09/29 08:15:23;;;;;;;25.20;17.30;;;;;;;;;;4992912;28;20026;-71
2021/09/29 08:17:49;;;;;;;22.67;17.02;;;;;;;;;;5019022;28;20097;-70
2021/09/29 08:20:18;;;;;;;31.10;20.77;;;;;;;;;;5012534;28;20492;-70
2021/09/29 08:22:46;;;;;;;26.30;19.15;;;;;;;;;;5011848;28;20097;-71
2021/09/29 08:37:48;;;;;;;25.88;17.83;;;;;;;;;;5013910;28;20423;-70
2021/09/29 08:43:00;;;;;;;24.45;17.45;;;;;;;;;;5011553;28;19932;-70
2021/09/29 08:45:34;;;;;;;25.20;18.27;;;;;;;;;;5012285;28;20101;-70
2021/09/29 08:48:10;;;;;;;27.63;18.52;;;;;;;;;;5010810;28;20517;-70
2021/09/29 08:51:17;;;;;;;23.08;17.23;;;;;;;;;;4995326;28;20051;-70
2021/09/29 08:53:51;;;;;;;21.85;16.88;;;;;;;;;;4995244;28;20403;-70
2021/09/29 09:18:11;;;;;;;12.43;10.63;;;;;;;;;;4992405;28;20035;-70
2021/09/29 09:20:41;;;;;;;9.55;7.72;;;;;;;;;;4991597;28;20022;-70
2021/09/29 09:23:06;;;;;;;11.60;9.82;;;;;;;;;;4991482;28;20030;-71
2021/09/29 09:25:34;;;;;;;8.65;7.28;;;;;;;;;;4990114;28;20033;-70
2021/09/29 09:28:00;;;;;;;9.02;8.07;;;;;;;;;;4991420;28;20419;-70
2021/09/29 09:30:30;;;;;;;9.70;7.32;;;;;;;;;;4991520;28;20093;-70
2021/09/29 09:32:56;;;;;;;7.82;7.03;;;;;;;;;;4990350;28;20057;-70
2021/09/29 09:35:21;;;;;;;8.18;6.20;;;;;;;;;;4991888;28;20503;-71
2021/09/29 09:37:53;;;;;;;7.28;5.20;;;;;;;;;;4991727;28;20030;-70
2021/09/29 09:40:20;;;;;;;7.07;5.90;;;;;;;;;;4996226;28;20032;-68
2021/09/29 09:42:46;;;;;;;7.97;5.65;;;;;;;;;;4994626;28;20026;-69
2021/09/29 09:45:12;;;;;;;5.82;5.15;;;;;;;;;;4994845;28;20022;-70
2021/09/29 09:47:40;;;;;;;7.38;5.80;;;;;;;;;;4995571;28;20113;-71
2021/09/29 09:50:05;;;;;;;5.78;5.20;;;;;;;;;;4993560;28;20135;-70
2021/09/29 09:52:36;;;;;;;5.70;5.20;;;;;;;;;;4993830;28;20039;-69
2021/09/29 09:55:12;;;;;;;6.47;5.28;;;;;;;;;;4992765;28;20022;-69
2021/09/29 09:57:39;;;;;;;5.28;4.68;;;;;;;;;;4989488;28;20109;-70
2021/09/29 10:00:06;;;;;;;5.97;5.38;;;;;;;;;;4992384;28;20484;-70
2021/09/29 10:02:58;;;;;;;6.93;5.20;;;;;;;;;;4976326;28;20506;-70
2021/09/29 10:05:26;;;;;;;6.70;4.32;;;;;;;;;;4992174;28;20511;-70
2021/09/29 10:07:52;;;;;;;6.07;4.80;;;;;;;;;;4994990;28;20041;-70
2021/09/29 10:10:41;;;;;;;7.32;5.22;;;;;;;;;;4995372;28;20400;-70
2021/09/29 10:27:06;;;;;;;8.15;5.57;;;;;;;;;;4994734;28;20057;-69
2021/09/29 10:29:35;;;;;;;6.15;5.55;;;;;;;;;;4994799;28;20026;-70
2021/09/29 10:32:13;;;;;;;6.25;5.63;;;;;;;;;;4994260;28;20022;-70
2021/09/29 10:34:49;;;;;;;6.05;5.45;;;;;;;;;;4994238;28;20026;-70
2021/09/29 10:47:53;;;;;;;6.78;5.60;;;;;;;;;;4994623;28;20495;-70
2021/09/29 11:04:33;;;;;;;3.58;3.28;;;;;;;;;;5012598;28;20156;-69
2021/09/29 11:30:38;;;;;;;5.65;2.35;;;;;;;;;;5013100;28;20180;-69
2021/09/29 11:33:19;;;;;;;3.30;3.00;;;;;;;;;;4993770;28;20080;-69
2021/09/29 12:08:27;;;;;;;0.65;0.40;;;;;;;;;;5012059;28;20490;-69
2021/09/29 12:11:05;;;;;;;0.90;0.30;;;;;;;;;;5012537;28;20128;-70
2021/09/29 12:13:40;;;;;;;0.70;0.32;;;;;;;;;;4996031;28;20022;-70
2021/09/29 12:16:05;;;;;;;;;;;;;;;;;;5012810;28;20029;-70
2021/09/29 12:18:30;;;;;;;1.83;0.40;;;;;;;;;;5011943;28;20426;-70
2021/09/29 12:20:56;;;;;;;1.20;0.30;;;;;;;;;;5012201;28;20033;-69
2021/09/29 12:23:23;;;;;;;1.58;0.35;;;;;;;;;;4993941;28;20341;-70
2021/09/29 12:25:58;;;;;;;0.65;0.28;;;;;;;;;;5010677;28;20033;-69
2021/09/29 12:31:08;;;;;;;1.88;0.40;;;;;;;;;;5012400;28;20073;-70
2021/09/29 12:33:47;;;;;;;1.67;0.50;;;;;;;;;;5010585;28;20024;-70
2021/09/29 12:36:14;;;;;;;1.48;0.30;;;;;;;;;;5010585;28;20057;-70
2021/09/29 12:38:42;;;;;;;0.65;0.20;;;;;;;;;;4978462;28;20388;-70
2021/09/29 12:41:07;;;;;;;1.05;0.40;;;;;;;;;;5011504;28;20025;-69
2021/09/29 12:43:33;;;;;;;0.80;0.30;;;;;;;;;;5012097;28;20504;-71
2021/09/29 12:45:58;;;;;;;0.50;0.20;;;;;;;;;;5011431;28;20351;-71
2021/09/29 12:48:26;;;;;;;0.93;0.30;;;;;;;;;;4994387;28;20315;-71
2021/09/29 12:50:55;;;;;;;1.30;0.20;;;;;;;;;;4994345;28;20269;-71
2021/09/29 12:53:49;;;;;;;2.15;0.30;;;;;;;;;;4993247;28;20030;-71
2021/09/29 12:56:16;;;;;;;1.52;1.25;;;;;;;;;;5001303;28;20076;-71
2021/09/29 12:58:41;;;;;;;0.20;0.20;;;;;;;;;;5011750;28;20550;-69
2021/09/29 13:01:06;;;;;;;0.63;0.22;;;;;;;;;;5011089;28;20081;-70
2021/09/29 13:03:31;;;;;;;0.55;0.20;;;;;;;;;;5011281;28;20018;-70
2021/09/29 13:06:00;;;;;;;1.52;0.40;;;;;;;;;;4993719;28;20051;-71
2021/09/29 13:08:26;;;;;;;1.70;0.30;;;;;;;;;;4992449;28;20026;-70
2021/09/29 13:10:52;;;;;;;0.80;0.20;;;;;;;;;;5010788;28;20014;-69
2021/09/29 13:13:17;;;;;;;0.80;0.40;;;;;;;;;;5010786;28;20480;-69
2021/09/29 13:15:45;;;;;;;1.00;0.20;;;;;;;;;;5007629;28;20033;-69
2021/09/29 13:18:17;;;;;;;0.60;0.20;;;;;;;;;;5010852;28;20057;-69
2021/09/29 13:20:45;;;;;;;0.88;0.20;;;;;;;;;;4989566;28;20018;-69
2021/09/29 13:23:15;;;;;;;0.80;0.20;;;;;;;;;;5007977;28;20026;-69
2021/09/29 13:36:34;;;;;;;1.30;0.20;;;;;;;;;;5009284;28;20041;-71
2021/09/29 13:38:59;;;;;;;1.95;0.10;;;;;;;;;;5008815;28;20456;-69
2021/09/29 13:41:24;;;;;;;0.75;0.20;;;;;;;;;;5010830;28;20041;-70
2021/09/29 13:43:49;;;;;;;0.50;0.20;;;;;;;;;;4991783;28;20018;-69
2021/09/29 13:46:15;;;;;;;1.87;0.30;;;;;;;;;;4993610;28;20519;-70
2021/09/29 13:48:40;;;;;;;2.72;0.32;;;;;;;;;;5008873;28;20022;-71
2021/09/29 13:51:05;;;;;;;1.10;0.30;;;;;;;;;;5010933;28;20468;-70
2021/09/29 13:53:30;;;;;;;0.90;0.30;;;;;;;;;;5009399;28;20040;-70
2021/09/29 13:55:58;;;;;;;3.30;0.40;;;;;;;;;;4978801;28;20047;-69
2021/09/29 13:58:39;;;;;;;1.20;0.20;;;;;;;;;;5003607;28;20024;-69
2021/09/29 14:01:44;;;;;;;2.25;0.55;;;;;;;;;;4978413;28;20030;-69
2021/09/29 14:31:14;;;;;;;1.48;0.22;;;;;;;;;;4969536;28;20145;-70
2021/09/29 14:33:44;;;;;;;1.38;0.30;;;;;;;;;;4977675;28;20037;-69
2021/09/29 14:36:09;;;;;;;1.15;0.20;;;;;;;;;;4981778;28;20491;-70
2021/09/29 14:38:34;;;;;;;2.80;0.38;;;;;;;;;;5013973;28;20026;-70
2021/09/29 14:40:59;;;;;;;1.33;0.20;;;;;;;;;;5014013;28;20062;-70
2021/09/29 14:43:25;;;;;;;1.60;0.20;;;;;;;;;;4976326;28;20301;-70
2021/09/29 14:45:50;;;;;;;2.15;0.20;;;;;;;;;;4991992;28;20618;-70
2021/09/29 14:48:15;;;;;;;2.80;0.30;;;;;;;;;;4994945;28;20092;-69
2021/09/29 14:50:43;;;;;;;0.57;0.20;;;;;;;;;;4994808;28;20810;-69
2021/09/29 14:53:08;;;;;;;1.15;0.30;;;;;;;;;;4994644;28;20269;-68
2021/09/29 14:55:33;;;;;;;0.77;0.20;;;;;;;;;;5013438;28;20590;-69
2021/09/29 14:57:59;;;;;;;1.80;0.20;;;;;;;;;;5013628;28;20030;-69
2021/09/29 15:00:32;;;;;;;1.60;0.20;;;;;;;;;;5013347;28;20061;-70
2021/09/29 15:02:59;;;;;;;2.13;0.20;;;;;;;;;;5017552;28;20017;-69
2021/09/29 15:05:24;;;;;;;2.10;0.38;;;;;;;;;;5010528;28;20547;-69
2021/09/29 15:07:49;;;;;;;2.22;0.30;;;;;;;;;;5011731;28;20072;-71
2021/09/29 15:10:14;;;;;;;1.57;0.30;;;;;;;;;;4996313;28;20032;-70
2021/09/29 15:12:40;;;;;;;3.25;0.20;;;;;;;;;;4995888;28;20714;-69
2021/09/29 15:17:40;;;;;;;1.98;0.20;;;;;;;;;;5013305;28;20132;-69
2021/09/29 15:22:46;;;;;;;1.52;0.30;;;;;;;;;;5008084;28;20533;-69
2021/09/29 15:25:20;;;;;;;1.85;0.20;;;;;;;;;;4993171;28;20022;-70
2021/09/29 15:47:05;;;;;;;0.60;0.20;;;;;;;;;;5022753;28;20056;-68
2021/09/29 16:00:10;;;;;;;0.90;0.20;;;;;;;;;;4993609;28;20089;-69
2021/09/29 16:03:02;;;;;;;2.50;0.32;;;;;;;;;;4994182;28;20022;-69
2021/09/29 16:08:20;;;;;;;1.65;0.22;;;;;;;;;;4998165;28;20395;-69
2021/09/29 16:11:17;;;;;;;1.45;0.20;;;;;;;;;;5025447;28;20487;-70
2021/09/29 16:35:26;;;;;;;1.00;0.20;;;;;;;;;;4894365;29;20081;-69
2021/09/29 16:37:51;;;;;;;2.58;0.30;;;;;;;;;;4894047;29;20037;-68
2021/09/29 16:40:19;;;;;;;2.10;0.30;;;;;;;;;;4896288;29;20088;-69
2021/09/29 16:42:47;;;;;;;2.10;0.20;;;;;;;;;;4909961;29;20064;-69
2021/09/29 16:45:13;;;;;;;2.17;0.30;;;;;;;;;;4895192;29;20462;-71
2021/09/29 16:47:40;;;;;;;1.75;0.20;;;;;;;;;;4882521;29;20025;-69
2021/09/29 16:50:06;;;;;;;1.85;0.20;;;;;;;;;;4879538;29;20073;-69
2021/09/29 16:55:04;;;;;;;1.45;0.10;;;;;;;;;;4895991;29;20518;-69
2021/09/29 16:57:34;;;;;;;1.17;0.40;;;;;;;;;;4911936;29;20044;-70
2021/09/29 17:02:27;;;;;;;1.90;0.30;;;;;;;;;;4914336;29;20078;-68
2021/09/29 17:04:52;;;;;;;1.15;0.20;;;;;;;;;;4971613;28;20558;-69
2021/09/29 17:07:17;;;;;;;0.97;0.17;;;;;;;;;;4989335;28;20030;-70
2021/09/29 17:09:43;;;;;;;2.00;0.30;;;;;;;;;;4993491;28;20269;-70
2021/09/29 17:12:08;;;;;;;0.93;0.20;;;;;;;;;;4993439;28;20421;-69
2021/09/29 17:14:34;;;;;;;1.02;0.20;;;;;;;;;;4985091;28;20030;-71
2021/09/29 17:16:59;;;;;;;0.77;0.17;;;;;;;;;;5013856;28;20093;-76
2021/09/29 17:19:24;;;;;;;1.95;0.63;;;;;;;;;;4994195;28;20156;-73
2021/09/29 17:21:50;;;;;;;2.38;0.32;;;;;;;;;;4990534;28;20105;-74
2021/09/29 17:24:15;;;;;;;1.10;0.13;;;;;;;;;;4988183;28;20022;-74
2021/09/29 17:26:41;;;;;;;1.20;0.45;;;;;;;;;;4974549;28;20526;-73
2021/09/29 17:29:07;;;;;;;1.25;0.20;;;;;;;;;;4991325;28;20033;-77
2021/09/29 17:52:52;;;;;;;2.00;0.30;;;;;;;;;;4990701;28;20097;-73
2021/09/29 17:55:17;;;;;;;0.77;0.35;;;;;;;;;;4988559;28;20037;-74
2021/09/29 17:57:43;;;;;;;1.15;0.20;;;;;;;;;;5014268;28;20417;-73
2021/09/29 18:00:10;;;;;;;0.50;0.10;;;;;;;;;;4995993;28;20487;-73
2021/09/29 18:05:09;;;;;;;1.40;0.15;;;;;;;;;;5014758;28;20438;-72
2021/09/29 18:07:42;;;;;;;0.73;0.10;;;;;;;;;;4999172;28;20029;-73
2021/09/29 18:10:09;;;;;;;0.70;0.20;;;;;;;;;;5015503;28;20468;-73
2021/09/29 18:12:35;;;;;;;1.75;0.30;;;;;;;;;;5015075;28;20464;-72
2021/09/29 18:15:00;;;;;;;0.20;0.13;;;;;;;;;;5014394;28;20036;-72
2021/09/29 18:17:25;;;;;;;1.05;0.20;;;;;;;;;;5015820;28;20471;-72
2021/09/29 18:19:50;;;;;;;1.75;0.20;;;;;;;;;;5013311;28;20460;-72
2021/09/29 18:22:16;;;;;;;0.95;0.20;;;;;;;;;;4996494;28;20127;-72
2021/09/29 18:24:41;;;;;;;1.02;0.30;;;;;;;;;;4989917;28;20056;-72
2021/09/29 18:27:07;;;;;;;1.08;0.10;;;;;;;;;;5005168;28;20068;-72
2021/09/29 18:29:32;;;;;;;1.23;0.30;;;;;;;;;;4991343;28;20165;-72
2021/09/29 18:31:58;;;;;;;0.30;0.15;;;;;;;;;;4996283;28;20037;-72
2021/09/29 18:34:26;;;;;;;0.93;0.20;;;;;;;;;;5012048;28;20017;-73
2021/09/29 18:36:51;;;;;;;0.95;0.20;;;;;;;;;;4996488;28;20428;-73
2021/09/29 18:39:21;;;;;;;1.77;0.30;;;;;;;;;;4995634;28;20040;-72
2021/09/29 18:41:46;;;;;;;2.85;0.30;;;;;;;;;;4996056;28;20029;-73
2021/09/29 18:44:14;;;;;;;1.48;0.10;;;;;;;;;;4991237;28;20388;-72
2021/09/29 18:46:39;;;;;;;0.60;0.20;;;;;;;;;;4982171;28;20027;-73
2021/09/29 18:49:08;;;;;;;0.68;0.40;;;;;;;;;;5013219;28;20026;-72